Tomazina, Brazil
Current Conditions -  °F | °C
As of 2:00 PM on Saturday 25 Oct 2014 (Local Time) from SBLO Reporting Station
Scattered Clouds Scattered Clouds  
Wind Chill: 84°   Ceiling: Unl
Heat Index: 87°   Visibility: 6mi
Dew Point: 68°   Wind: 9mph
Humidity: 58%   Direction: 30°NNE
Pressure: 30"   Gusts: NA
Location:  23.78°S, 49.95°W
Report Text: SBLO 251600Z 03008KT 9999 SCT015 SCT025 29/20 Q1016
Loading
Personal Weather Stations






























Interactive Weather Map
Tropical Storm Tracking
New forecast layout! Learn more

10-Day Weather Forecast

Advertisements
Track Severe Weather on mobile